createdAt,value
2022-08-23T00:02:02.488Z,4.07
2022-08-23T00:04:35.726Z,6.40
2022-08-23T00:07:09.413Z,6.43
2022-08-23T00:09:39.363Z,5.80
2022-08-23T00:12:14.138Z,8.98
2022-08-23T00:14:50.140Z,11.88
2022-08-23T00:17:33.755Z,5.40
2022-08-23T00:20:05.083Z,8.10
2022-08-23T00:22:35.957Z,6.25
2022-08-23T00:25:06.034Z,9.05
2022-08-23T00:27:34.600Z,8.40
2022-08-23T00:30:03.784Z,7.40
2022-08-23T00:32:34.667Z,9.85
2022-08-23T00:35:03.273Z,7.35
2022-08-23T00:37:32.675Z,7.55
2022-08-23T00:40:02.514Z,7.72
2022-08-23T00:42:54.116Z,5.88
2022-08-23T00:45:45.544Z,4.82
2022-08-23T00:48:15.121Z,7.97
2022-08-23T00:50:53.782Z,4.32
2022-08-23T00:53:25.949Z,5.05
2022-08-23T00:55:59.481Z,3.72
2022-08-23T00:58:29.682Z,8.95
2022-08-23T01:01:01.726Z,10.65
2022-08-23T01:03:38.702Z,7.57
2022-08-23T01:06:10.927Z,5.15
2022-08-23T01:08:42.572Z,8.63
2022-08-23T01:11:18.339Z,7.18
2022-08-23T01:13:50.525Z,6.15
2022-08-23T01:16:27.561Z,5.80
2022-08-23T01:18:56.765Z,6.28
2022-08-23T01:21:31.027Z,5.50
2022-08-23T01:24:04.117Z,5.25
2022-08-23T01:26:35.304Z,4.57
2022-08-23T01:29:07.529Z,7.63
2022-08-23T01:31:36.979Z,8.23
2022-08-23T01:34:07.600Z,5.45
2022-08-23T01:36:37.158Z,7.93
2022-08-23T01:39:09.048Z,7.32
2022-08-23T01:41:39.136Z,7.18
2022-08-23T01:44:09.762Z,5.30
2022-08-23T01:46:38.997Z,6.78
2022-08-23T01:49:08.402Z,7.10
2022-08-23T01:51:37.586Z,9.02
2022-08-23T01:54:07.697Z,9.10
2022-08-23T01:56:38.990Z,8.70
2022-08-23T01:59:13.659Z,5.45
2022-08-23T02:01:52.916Z,10.18
2022-08-23T02:04:22.550Z,5.90
2022-08-23T02:06:50.847Z,9.77
2022-08-23T02:11:56.610Z,9.98
2022-08-23T02:14:25.281Z,9.43
2022-08-23T02:17:03.009Z,7.03
2022-08-23T02:19:33.710Z,10.10
2022-08-23T02:22:03.610Z,9.07
2022-08-23T02:24:34.413Z,10.65
2022-08-23T02:27:07.076Z,10.88
2022-08-23T02:29:41.636Z,8.30
2022-08-23T02:32:16.323Z,8.70
2022-08-23T02:34:57.793Z,10.20
2022-08-23T02:37:34.433Z,8.75
2022-08-23T02:40:08.510Z,7.65
2022-08-23T02:42:39.844Z,8.98
2022-08-23T02:45:11.616Z,11.95
2022-08-23T02:47:47.462Z,7.35
2022-08-23T02:50:23.435Z,5.68
2022-08-23T02:52:54.636Z,6.25
2022-08-23T02:55:26.414Z,8.38
2022-08-23T02:57:56.985Z,5.85
2022-08-23T03:00:27.158Z,9.35
2022-08-23T03:02:58.015Z,9.77
2022-08-23T03:05:30.763Z,5.05
2022-08-23T03:07:59.655Z,8.93
2022-08-23T03:10:29.306Z,8.38
2022-08-23T03:15:32.981Z,5.25
2022-08-23T03:18:03.878Z,6.43
2022-08-23T03:20:33.160Z,7.57
2022-08-23T03:23:01.754Z,6.68
2022-08-23T03:25:32.615Z,10.10
2022-08-23T03:28:22.546Z,8.43
2022-08-23T03:30:51.665Z,8.88
2022-08-23T03:33:21.052Z,6.47
2022-08-23T03:35:51.171Z,12.98
2022-08-23T03:38:22.087Z,11.20
2022-08-23T03:40:54.316Z,7.95
2022-08-23T03:43:25.004Z,6.88
2022-08-23T03:45:55.548Z,9.00
2022-08-23T03:48:26.546Z,12.05
2022-08-23T03:50:56.465Z,9.05
2022-08-23T03:53:28.023Z,11.85
2022-08-23T03:55:59.293Z,8.98
2022-08-23T03:58:30.289Z,5.13
2022-08-23T04:00:59.117Z,8.93
2022-08-23T04:03:29.680Z,7.47
2022-08-23T04:06:05.917Z,10.77
2022-08-23T04:08:36.001Z,8.73
2022-08-23T04:11:09.714Z,6.80
2022-08-23T04:13:41.291Z,8.80
2022-08-23T04:16:11.961Z,12.43
2022-08-23T04:18:40.671Z,9.60
2022-08-23T04:21:15.118Z,6.07
2022-08-23T04:23:45.322Z,5.70
2022-08-23T04:26:17.053Z,7.05
2022-08-23T04:28:46.762Z,7.00
2022-08-23T04:31:15.467Z,9.27
2022-08-23T04:33:45.894Z,11.35
2022-08-23T04:36:23.301Z,7.90
2022-08-23T04:38:52.218Z,11.20
2022-08-23T04:41:49.223Z,7.80
2022-08-23T04:44:17.843Z,6.43
2022-08-23T04:46:48.589Z,7.93
2022-08-23T04:49:18.324Z,9.95
2022-08-23T04:51:52.776Z,8.30
2022-08-23T04:54:23.294Z,9.80
2022-08-23T04:57:15.593Z,9.13
2022-08-23T04:59:45.950Z,9.07
2022-08-23T05:02:14.525Z,9.10
2022-08-23T05:04:42.614Z,9.43
2022-08-23T05:07:10.897Z,6.72
2022-08-23T05:09:38.990Z,9.93
2022-08-23T05:12:08.277Z,26.15
2022-08-23T05:14:38.103Z,12.70
2022-08-23T05:17:06.372Z,10.55
2022-08-23T05:19:39.412Z,8.00
2022-08-23T05:22:12.653Z,35.63
2022-08-23T05:25:00.013Z,31.45
2022-08-23T05:27:30.947Z,45.75
2022-08-23T05:30:03.104Z,42.92
2022-08-23T05:32:33.608Z,41.03
2022-08-23T05:35:03.029Z,33.22
2022-08-23T05:37:36.342Z,26.85
2022-08-23T05:40:07.249Z,33.03
2022-08-23T05:42:44.653Z,30.30
2022-08-23T05:45:21.090Z,30.73
2022-08-23T05:47:52.958Z,24.42
2022-08-23T05:50:44.827Z,28.33
2022-08-23T05:53:17.492Z,31.85
2022-08-23T05:55:49.620Z,39.83
2022-08-23T05:58:24.704Z,26.88
2022-08-23T06:00:56.642Z,44.00
2022-08-23T06:03:26.587Z,44.83
2022-08-23T06:06:03.571Z,50.20
2022-08-23T06:08:33.189Z,65.65
2022-08-23T06:11:05.202Z,49.83
2022-08-23T06:13:44.201Z,30.38
2022-08-23T06:16:19.673Z,25.73
2022-08-23T06:18:50.309Z,43.92
2022-08-23T06:21:46.033Z,50.63
2022-08-23T06:24:17.252Z,51.58
2022-08-23T06:27:21.839Z,50.30
2022-08-23T06:29:52.773Z,30.02
2022-08-23T06:32:36.319Z,18.53
2022-08-23T06:35:43.592Z,33.28
2022-08-23T06:38:25.888Z,15.80
2022-08-23T06:41:19.966Z,22.67
2022-08-23T06:44:10.939Z,23.33
2022-08-23T06:46:59.648Z,19.67
2022-08-23T06:49:31.531Z,22.08
2022-08-23T06:52:04.710Z,17.98
2022-08-23T06:54:59.780Z,15.90
2022-08-23T06:57:42.735Z,18.98
2022-08-23T07:00:34.722Z,15.90
2022-08-23T07:03:22.640Z,20.88
2022-08-23T07:06:12.752Z,18.42
2022-08-23T07:08:43.545Z,16.15
2022-08-23T07:11:14.581Z,26.92
2022-08-23T07:13:47.256Z,30.65
2022-08-23T07:16:19.706Z,31.58
2022-08-23T07:18:52.366Z,33.03
2022-08-23T07:21:25.983Z,30.13
2022-08-23T07:23:56.371Z,26.65
2022-08-23T07:26:25.627Z,22.92
2022-08-23T07:28:57.858Z,14.82
2022-08-23T07:31:31.413Z,14.57
2022-08-23T07:34:03.847Z,11.20
2022-08-23T07:36:39.054Z,8.95
2022-08-23T07:39:08.691Z,7.72
2022-08-23T07:41:39.969Z,7.25
2022-08-23T07:44:12.194Z,7.63
2022-08-23T07:46:47.312Z,7.68
2022-08-23T07:49:20.389Z,5.85
2022-08-23T07:51:53.887Z,6.32
2022-08-23T07:54:26.609Z,13.88
2022-08-23T07:57:06.320Z,8.32
2022-08-23T07:59:53.186Z,6.07
2022-08-23T08:02:42.310Z,4.15
2022-08-23T08:05:22.034Z,13.82
2022-08-23T08:07:56.986Z,8.05
2022-08-23T08:10:27.292Z,7.50
2022-08-23T08:12:57.020Z,6.90
2022-08-23T08:15:27.317Z,6.25
2022-08-23T08:18:05.168Z,6.45
2022-08-23T08:20:58.857Z,9.63
2022-08-23T08:23:59.029Z,5.43
2022-08-23T08:26:42.092Z,6.40
2022-08-23T08:29:12.295Z,6.95
2022-08-23T08:31:46.081Z,4.88
2022-08-23T08:34:20.180Z,8.00
2022-08-23T08:39:26.978Z,7.95
2022-08-23T08:42:11.105Z,4.60
2022-08-23T08:44:50.183Z,5.32
2022-08-23T08:47:38.288Z,8.13
2022-08-23T08:50:16.190Z,7.43
2022-08-23T08:52:52.441Z,5.45
2022-08-23T08:55:45.282Z,9.35
2022-08-23T08:58:21.254Z,5.03
2022-08-23T09:00:55.179Z,5.10
2022-08-23T09:03:31.452Z,6.10
2022-08-23T09:06:05.651Z,6.07
2022-08-23T09:08:54.233Z,5.65
2022-08-23T09:11:37.854Z,6.55
2022-08-23T09:16:53.601Z,6.85
2022-08-23T09:19:25.438Z,8.88
2022-08-23T09:22:00.338Z,5.97
2022-08-23T09:24:31.817Z,4.20
2022-08-23T09:27:11.492Z,6.18
2022-08-23T09:29:53.380Z,7.97
2022-08-23T09:32:33.122Z,5.72
2022-08-23T09:35:12.268Z,9.40
2022-08-23T09:38:03.262Z,4.82
2022-08-23T09:40:41.319Z,4.65
2022-08-23T09:43:16.451Z,7.85
2022-08-23T09:48:40.138Z,3.85
2022-08-23T09:51:25.155Z,7.45
2022-08-23T09:54:07.465Z,5.95
2022-08-23T09:56:41.237Z,4.32
2022-08-23T09:59:42.008Z,5.90
2022-08-23T10:02:27.249Z,4.20
2022-08-23T10:05:02.172Z,4.95
2022-08-23T10:07:42.662Z,6.25
2022-08-23T10:10:19.799Z,6.72
2022-08-23T10:12:49.433Z,5.88
2022-08-23T10:15:21.343Z,8.10
2022-08-23T10:17:57.494Z,5.38
2022-08-23T10:20:36.475Z,6.45
2022-08-23T10:23:21.478Z,6.75
2022-08-23T10:25:59.419Z,5.53
2022-08-23T10:29:01.611Z,6.03
2022-08-23T10:31:44.038Z,6.03
2022-08-23T10:34:38.862Z,6.28
2022-08-23T10:37:26.455Z,5.15
2022-08-23T10:40:04.344Z,6.38
2022-08-23T10:42:46.383Z,6.18
2022-08-23T10:45:25.324Z,5.63
2022-08-23T10:48:21.296Z,6.43
2022-08-23T10:50:56.357Z,6.40
2022-08-23T10:53:35.955Z,7.97
2022-08-23T10:56:08.777Z,5.55
2022-08-23T10:58:48.342Z,8.45
2022-08-23T11:01:22.489Z,5.75
2022-08-23T11:04:06.710Z,6.78
2022-08-23T11:07:03.382Z,4.28
2022-08-23T11:09:54.084Z,4.30
2022-08-23T11:12:30.560Z,6.43
2022-08-23T11:15:21.343Z,5.97
2022-08-23T11:18:03.190Z,4.75
2022-08-23T11:21:03.448Z,6.13
2022-08-23T11:23:51.460Z,9.23
2022-08-23T11:27:06.715Z,5.82
2022-08-23T11:29:43.684Z,6.38
2022-08-23T11:32:40.974Z,6.57
2022-08-23T11:35:36.849Z,5.85
2022-08-23T11:38:11.664Z,10.55
2022-08-23T11:41:15.749Z,4.93
2022-08-23T11:43:47.995Z,6.65
2022-08-23T11:46:36.625Z,7.43
2022-08-23T11:49:55.706Z,6.10
2022-08-23T11:52:48.223Z,5.00
2022-08-23T11:55:38.459Z,6.50
2022-08-23T11:58:23.435Z,7.68
2022-08-23T12:01:08.156Z,10.32
2022-08-23T12:03:53.517Z,6.00
2022-08-23T12:06:41.604Z,6.38
2022-08-23T12:09:16.268Z,5.20
2022-08-23T12:12:24.834Z,4.38
2022-08-23T12:14:58.291Z,12.50
2022-08-23T12:17:56.721Z,6.53
2022-08-23T12:20:32.449Z,7.38
2022-08-23T12:23:08.537Z,7.22
2022-08-23T12:25:37.726Z,5.05
2022-08-23T12:28:21.099Z,7.90
2022-08-23T12:30:57.845Z,8.27
2022-08-23T12:33:36.932Z,6.95
2022-08-23T12:36:16.734Z,7.45
2022-08-23T12:38:56.301Z,7.35
2022-08-23T12:41:28.795Z,7.78
2022-08-23T12:44:03.949Z,5.13
2022-08-23T12:46:36.078Z,5.28
2022-08-23T12:49:07.910Z,9.23
2022-08-23T12:51:49.803Z,5.07
2022-08-23T12:54:22.499Z,4.72
2022-08-23T12:56:53.594Z,6.20
2022-08-23T12:59:39.155Z,5.93
2022-08-23T13:02:12.527Z,7.70
2022-08-23T13:04:47.591Z,6.43
2022-08-23T13:07:23.806Z,5.90
2022-08-23T13:09:55.611Z,9.70
2022-08-23T13:12:26.955Z,4.35
2022-08-23T13:15:01.747Z,3.63
2022-08-23T13:17:41.013Z,4.75
2022-08-23T13:20:24.864Z,5.15
2022-08-23T13:23:00.526Z,6.70
2022-08-23T13:25:32.779Z,5.40
2022-08-23T13:28:05.126Z,5.20
2022-08-23T13:30:38.270Z,6.78
2022-08-23T13:35:49.713Z,6.05
2022-08-23T13:38:24.200Z,6.88
2022-08-23T13:41:02.968Z,3.80
2022-08-23T13:43:37.102Z,7.65
2022-08-23T13:46:22.353Z,7.63
2022-08-23T13:48:55.556Z,7.03
2022-08-23T13:54:00.813Z,4.10
2022-08-23T13:56:32.277Z,3.65
2022-08-23T13:59:04.179Z,5.28
2022-08-23T14:01:34.763Z,6.18
2022-08-23T14:04:03.739Z,8.77
2022-08-23T14:06:33.346Z,6.65
2022-08-23T14:09:02.460Z,9.55
2022-08-23T14:11:34.543Z,6.72
2022-08-23T14:14:04.391Z,6.72
2022-08-23T14:16:40.175Z,5.45
2022-08-23T14:19:18.069Z,5.57
2022-08-23T14:22:03.054Z,3.35
2022-08-23T14:24:32.886Z,4.93
2022-08-23T14:27:02.919Z,5.70
2022-08-23T14:29:32.465Z,8.75
2022-08-23T14:32:04.633Z,8.00
2022-08-23T14:34:34.607Z,3.60
2022-08-23T14:39:53.956Z,8.70
2022-08-23T14:42:25.827Z,3.63
2022-08-23T14:44:57.780Z,6.53
2022-08-23T14:47:31.021Z,6.83
2022-08-23T14:50:01.631Z,8.15
2022-08-23T14:52:33.514Z,5.07
2022-08-23T14:55:04.436Z,3.92
2022-08-23T14:57:35.170Z,5.50
2022-08-23T15:00:06.433Z,4.75
2022-08-23T15:02:38.804Z,5.53
2022-08-23T15:05:12.604Z,7.45
2022-08-23T15:07:43.393Z,9.32
2022-08-23T15:13:20.979Z,4.00
2022-08-23T15:15:56.573Z,7.60
2022-08-23T15:18:32.145Z,7.32
2022-08-23T15:21:01.982Z,7.57
2022-08-23T15:23:35.360Z,6.18
2022-08-23T15:28:36.895Z,6.65
2022-08-23T15:31:06.300Z,6.82
2022-08-23T15:33:36.284Z,4.93
2022-08-23T15:36:10.756Z,4.70
2022-08-23T15:38:41.502Z,5.03
2022-08-23T15:41:10.743Z,7.43
2022-08-23T15:43:40.560Z,5.82
2022-08-23T15:46:13.839Z,5.90
2022-08-23T15:48:50.362Z,5.82
2022-08-23T15:51:21.034Z,6.95
2022-08-23T15:53:50.093Z,6.15
2022-08-23T15:56:21.865Z,3.33
2022-08-23T15:58:50.635Z,4.95
2022-08-23T16:01:24.334Z,6.60
2022-08-23T16:03:57.212Z,8.98
2022-08-23T16:06:28.141Z,5.85
2022-08-23T16:08:57.909Z,4.68
2022-08-23T16:11:26.480Z,4.20
2022-08-23T16:13:55.347Z,8.93
2022-08-23T16:16:27.457Z,5.28
2022-08-23T16:19:00.337Z,4.68
2022-08-23T16:21:31.654Z,3.05
2022-08-23T16:24:03.460Z,5.15
2022-08-23T16:26:37.850Z,5.53
2022-08-23T16:29:11.974Z,6.78
2022-08-23T16:31:42.633Z,7.22
2022-08-23T16:34:17.061Z,8.52
2022-08-23T16:36:52.175Z,8.50
2022-08-23T16:39:24.334Z,7.88
2022-08-23T16:41:55.873Z,12.52
2022-08-23T16:44:25.283Z,7.50
2022-08-23T16:46:56.573Z,5.72
2022-08-23T16:49:26.949Z,5.72
2022-08-23T16:51:59.329Z,11.98
2022-08-23T16:54:28.969Z,10.43
2022-08-23T16:57:00.017Z,13.07
2022-08-23T16:59:31.680Z,7.20
2022-08-23T17:02:10.483Z,10.90
2022-08-23T17:04:41.608Z,5.88
2022-08-23T17:07:10.312Z,9.27
2022-08-23T17:09:38.801Z,8.40
2022-08-23T17:12:10.353Z,9.68
2022-08-23T17:14:41.296Z,8.52
2022-08-23T17:17:09.973Z,7.75
2022-08-23T17:19:38.568Z,7.13
2022-08-23T17:22:09.372Z,10.73
2022-08-23T17:24:38.048Z,11.57
2022-08-23T17:27:07.543Z,13.93
2022-08-23T17:29:37.542Z,10.55
2022-08-23T17:32:08.072Z,11.52
2022-08-23T17:34:39.308Z,11.02
2022-08-23T17:37:18.696Z,11.90
2022-08-23T17:39:49.150Z,9.25
2022-08-23T17:42:18.878Z,10.88
2022-08-23T17:44:47.863Z,11.05
2022-08-23T17:47:20.769Z,10.45
2022-08-23T17:49:51.492Z,9.75
2022-08-23T17:52:21.456Z,9.20
2022-08-23T17:54:51.427Z,8.75
2022-08-23T17:57:21.809Z,10.05
2022-08-23T17:59:52.813Z,12.30
2022-08-23T18:02:22.131Z,15.45
2022-08-23T18:04:51.216Z,10.80
2022-08-23T18:07:22.692Z,10.35
2022-08-23T18:09:51.100Z,10.55
2022-08-23T18:12:19.982Z,9.80
2022-08-23T18:14:51.071Z,11.05
2022-08-23T18:17:21.018Z,14.63
2022-08-23T18:19:51.770Z,16.20
2022-08-23T18:22:23.488Z,13.85
2022-08-23T18:24:52.134Z,11.98
2022-08-23T18:27:38.683Z,16.35
2022-08-23T18:30:12.129Z,10.98
2022-08-23T18:32:40.893Z,14.02
2022-08-23T18:35:10.106Z,13.63
2022-08-23T18:37:39.518Z,15.05
2022-08-23T18:40:10.473Z,14.05
2022-08-23T18:42:41.101Z,11.02
2022-08-23T18:45:10.508Z,18.00
2022-08-23T18:47:43.894Z,18.08
2022-08-23T18:50:23.154Z,27.63
2022-08-23T18:52:59.084Z,23.27
2022-08-23T18:55:31.722Z,22.85
2022-08-23T18:58:09.645Z,19.70
2022-08-23T19:00:41.972Z,24.00
2022-08-23T19:03:12.944Z,19.77
2022-08-23T19:05:42.750Z,17.80
2022-08-23T19:08:13.752Z,22.77
2022-08-23T19:10:45.838Z,20.52
2022-08-23T19:13:15.839Z,22.38
2022-08-23T19:15:49.518Z,21.05
2022-08-23T19:20:58.556Z,20.10
2022-08-23T19:23:30.409Z,24.30
2022-08-23T19:25:58.778Z,18.55
2022-08-23T19:28:27.757Z,21.25
2022-08-23T19:30:56.184Z,22.45
2022-08-23T19:33:25.382Z,45.75
2022-08-23T19:35:55.421Z,24.80
2022-08-23T19:38:28.840Z,23.75
2022-08-23T19:40:59.398Z,28.33
2022-08-23T19:43:27.855Z,25.77
2022-08-23T19:46:00.209Z,30.98
2022-08-23T19:48:29.622Z,30.10
2022-08-23T19:50:58.158Z,25.60
2022-08-23T19:53:31.233Z,32.20
2022-08-23T19:56:07.659Z,26.58
2022-08-23T19:58:39.823Z,24.38
2022-08-23T20:01:09.287Z,31.38
2022-08-23T20:03:38.050Z,33.25
2022-08-23T20:06:10.424Z,23.05
2022-08-23T20:08:44.973Z,28.92
2022-08-23T20:11:17.158Z,25.67
2022-08-23T20:13:51.645Z,24.52
2022-08-23T20:16:20.480Z,28.27
2022-08-23T20:18:48.706Z,26.90
2022-08-23T20:21:17.837Z,28.67
2022-08-23T20:24:04.075Z,30.77
2022-08-23T20:26:37.475Z,24.00
2022-08-23T20:29:07.652Z,34.45
2022-08-23T20:31:38.398Z,28.58
2022-08-23T20:34:10.454Z,28.95
2022-08-23T20:36:41.499Z,33.17
2022-08-23T20:39:11.101Z,29.90
2022-08-23T20:41:41.990Z,27.58
2022-08-23T20:44:13.156Z,28.08
2022-08-23T20:46:44.100Z,29.73
2022-08-23T20:49:13.164Z,32.47
2022-08-23T20:51:42.030Z,35.33
2022-08-23T20:54:14.977Z,22.10
2022-08-23T20:56:46.547Z,32.53
2022-08-23T20:59:15.014Z,33.22
2022-08-23T21:01:49.059Z,40.50
2022-08-23T21:04:18.101Z,43.85
2022-08-23T21:06:48.990Z,44.10
2022-08-23T21:09:29.034Z,45.90
2022-08-23T21:12:06.130Z,45.03
2022-08-23T21:14:36.171Z,38.80
2022-08-23T21:17:04.725Z,29.40
2022-08-23T21:19:33.744Z,41.45
2022-08-23T21:22:01.812Z,46.88
2022-08-23T21:24:30.628Z,45.78
2022-08-23T21:26:59.104Z,43.28
2022-08-23T21:29:28.618Z,37.42
2022-08-23T21:31:56.658Z,42.33
2022-08-23T21:34:25.164Z,35.35
2022-08-23T21:36:53.746Z,39.47
2022-08-23T21:39:26.482Z,37.22
2022-08-23T21:44:26.767Z,34.42
2022-08-23T21:46:58.760Z,37.80
2022-08-23T21:49:28.925Z,28.20
2022-08-23T21:51:59.402Z,39.55
2022-08-23T21:54:29.266Z,45.30
2022-08-23T21:56:58.949Z,39.75
2022-08-23T21:59:29.153Z,38.65
2022-08-23T22:01:59.820Z,37.97
2022-08-23T22:04:28.514Z,40.92
2022-08-23T22:07:00.790Z,39.03
2022-08-23T22:09:31.507Z,37.13
2022-08-23T22:12:00.823Z,31.45
2022-08-23T22:14:32.962Z,38.08
2022-08-23T22:17:03.615Z,39.42
2022-08-23T22:19:34.101Z,38.15
2022-08-23T22:22:03.089Z,35.85
2022-08-23T22:24:32.501Z,41.35
2022-08-23T22:27:02.850Z,39.67
2022-08-23T22:29:32.751Z,34.20
2022-08-23T22:32:03.746Z,37.92
2022-08-23T22:34:32.243Z,44.28
2022-08-23T22:37:00.472Z,28.00
2022-08-23T22:39:28.587Z,36.42
2022-08-23T22:41:56.583Z,28.33
2022-08-23T22:44:25.077Z,35.28
2022-08-23T22:46:53.944Z,41.70
2022-08-23T22:49:24.487Z,42.80
2022-08-23T22:51:55.498Z,36.05
2022-08-23T22:54:25.273Z,34.03
2022-08-23T22:56:56.010Z,44.05
2022-08-23T22:59:32.860Z,36.15
2022-08-23T23:02:03.461Z,35.22
2022-08-23T23:04:34.155Z,41.38
2022-08-23T23:07:02.986Z,27.55
2022-08-23T23:09:31.282Z,32.30
2022-08-23T23:11:59.661Z,38.65
2022-08-23T23:14:28.142Z,46.13
2022-08-23T23:16:56.377Z,42.17
2022-08-23T23:19:45.881Z,36.85
2022-08-23T23:22:18.038Z,34.63
2022-08-23T23:24:49.044Z,33.17
2022-08-23T23:27:18.821Z,35.92
2022-08-23T23:29:48.157Z,28.75
2022-08-23T23:32:18.483Z,40.05
2022-08-23T23:34:47.896Z,31.95
2022-08-23T23:37:19.940Z,32.50
2022-08-23T23:39:51.688Z,43.65
2022-08-23T23:42:20.112Z,31.83
2022-08-23T23:44:51.667Z,32.40
2022-08-23T23:47:22.966Z,43.67
2022-08-23T23:49:52.773Z,36.30
2022-08-23T23:52:23.901Z,46.85
2022-08-23T23:54:54.708Z,42.20
2022-08-23T23:57:25.928Z,24.98
2022-08-23T23:59:55.369Z,38.35
